EHVK 200120Z AUTO VRB01KT 0350 FG SCT000 OVC350 11/10 Q1022 RED EHVK 200113Z AUTO VRB01KT 0500 FG OVC350 10/10 Q1022 RED EHVK 200111Z AUTO VRB01KT 0800 FG OVC350 10/10 Q1022 AMB EHVK 200107Z AUTO VRB01KT 0600 FG SCT290 OVC350 10/10 Q1022 RED EHVK 200102Z AUTO 18001KT 0800 FG BKN290 OVC350 11/10 Q1022 AMB EHVK 200056Z AUTO VRB01KT 0400 FG OVC290 11/10 Q1022 RED EHVK 200055Z AUTO 18001KT 3000 BR BKN290 OVC350 10/10 Q1022 YLO EHVK 200049Z AUTO 18001KT 4000 BR BKN290 OVC350 11/10 Q1022 GRN EHVK 200044Z AUTO 18001KT 6000 BR OVC290 10/10 Q1022 WHT EHVK 200036Z AUTO 18001KT 1100 BR BKN300 OVC350 11/10 Q1022 AMB EHVK 200028Z AUTO 20001KT 1800 BR FEW000/// BKN350/// 11/10 Q1022 YLO EHVK 200025Z AUTO 24001KT 3300 BR BKN000 BKN360 11/11 Q1022 RED EHVK 200016Z AUTO 24001KT 4100 BR SCT000 BKN360 10/10 Q1022 RED EHVK 200007Z AUTO 26001KT 6000 BR FEW000 11/11 Q1022 WHT EHVK 200000Z AUTO 23001KT 2700 BR SCT000 11/11 Q1022 RED EHVK 192358Z AUTO 22001KT 4600 BR FEW000 11/11 Q1022 GRN EHVK 192355Z AUTO 22001KT 5000 BR NCD 11/11 Q1022 WHT EHVK 192348Z AUTO 22001KT 1000 BR NCD 11/11 Q1022 AMB EHVK 192345Z AUTO 22001KT 2600 BR NCD 11/11 Q1022 YLO EHVK 192340Z AUTO 24001KT 4200 BR FEW270 11/11 Q1022 GRN EHVK 192330Z AUTO 24002KT 3600 BR BKN270 12/12 Q1022 YLO EHVK 192325Z AUTO 23002KT 4100 BR BKN270 12/11 Q1022 GRN EHVK 192255Z AUTO 21001KT 6000 BR OVC280 12/12 Q1021 WHT EHVK 192225Z AUTO VRB01KT 7000 BR BKN330 13/13 Q1021 WHT EHVK 192159Z AUTO 28003KT 260V320 7000 BR SCT340 14/13 Q1022 WHT EHVK 192155Z AUTO 28004KT 250V320 8000 BR FEW340 14/13 Q1021 BLU EHVK 192125Z AUTO 29003KT 260V320 9000 BR NCD 15/13 Q1021 BLU EHVK 192056Z AUTO 29004KT 250V330 9999 FEW015 15/13 Q1021 BLU EHVK 192055Z AUTO 28004KT 250V330 9999 SCT015 15/13 Q1021 WHT EHVK 192033Z AUTO 29003KT 9999 SCT016 BKN019 15/13 Q1021 WHT EHVK 192026Z AUTO 29003KT 240V300 9999 FEW016 SCT019 15/13 Q1021 WHT EHVK 192025Z AUTO 28003KT 240V310 9999 FEW019 15/13 Q1021 BLU EHVK 191955Z AUTO 28004KT 240V310 9999 NCD 16/13 Q1021 BLU EHVK 191927Z AUTO 28006KT 250V330 9999 FEW016 SCT270 17/13 Q1020 BLU EHVK 191925Z AUTO 28006KT 250V330 9999 BKN016 17/14 Q1020 WHT EHVK 191903Z AUTO 28006KT 250V330 9999 SCT016 BKN019 OVC290 17/14 Q1020 WHT EHVK 191902Z AUTO 28005KT 250V330 9999 FEW017 SCT020 OVC290 17/14 Q1020 WHT EHVK 191855Z AUTO 28005KT 250V320 9999 FEW017 OVC300 18/14 Q1020 BLU EHVK 191840Z AUTO 28006KT 240V320 9999 FEW019 BKN310 18/14 Q1020 BLU EHVK 191825Z AUTO 28007KT 240V320 9999 BKN023 19/14 Q1020 WHT EHVK 191818Z AUTO 28008KT 240V320 9999 BKN023 BKN350 19/14 Q1020 WHT EHVK 191814Z AUTO 28009KT 240V320 9999 SCT024 BKN350 19/14 Q1020 WHT EHVK 191806Z AUTO 28008KT 240V330 9999 FEW019 19/14 Q1019 BLU EHVK 191755Z AUTO 27009KT 240V320 9999 SCT019 19/15 Q1019 WHT EHVK 191733Z AUTO 28006KT 250V320 9999 BKN019 20/16 Q1019 WHT EHVK 191732Z AUTO 28008KT 250V320 9999 SCT019 20/15 Q1019 WHT EHVK 191725Z AUTO 27008KT 250V330 9999 FEW020 20/15 Q1019 BLU EHVK 191655Z AUTO 24007KT 210V270 9999 FEW017 SCT021 BKN024 20/17 Q1019 WHT EHVK 191637Z AUTO 22008KT 200V260 9999 SCT019 BKN022 BKN027 21/17 Q1019 WHT EHVK 191630Z AUTO 23008KT 190V260 9999 SCT020 SCT023 BKN027 21/16 Q1019 WHT EHVK 191625Z AUTO 23008KT 190V270 9999 SCT019 BKN026 OVC029 21/17 Q1019 WHT EHVK 191620Z AUTO 24008KT 190V270 9999 FEW020 SCT025 BKN029 21/16 Q1019 BLU EHVK 191616Z AUTO 24008KT 190V270 9999 SCT024 BKN029 BKN032 21/16 Q1019 WHT EHVK 191612Z AUTO 23010KT 210V270 9999 FEW020 SCT026 BKN030 21/16 Q1019 BLU EHVK 191606Z AUTO 23011KT 210V280 9999 FEW020 SCT024 21/16 Q1019 WHT EHVK 191555Z AUTO 24008KT 200V270 9999 FEW020 22/17 Q1018 BLU EHVK 191525Z AUTO 23007KT 180V250 9999 OVC110 21/18 Q1018 BLU EHVK 191455Z AUTO 22001KT 9999 OVC130 20/16 Q1017 BLU EHVK 191431Z AUTO 03003KT 350V060 9999 FEW015CB OVC110 19/17 Q1017 BLU EHVK 191425Z AUTO 02004KT 330V060 9999 FEW015CB OVC100 19/17 Q1017 RERA BLU TEMPO VRB15G40KT 2000 SHRA TSRA SCT012 SCT030CB BKN090 EHVK 191356Z AUTO 32005KT 250V360 9999 -RA SCT015CB SCT077 OVC083 18/17 Q1018 WHT TEMPO VRB15G40KT 2000 SHRA TSRA SCT012 SCT030CB BKN090 EHVK 191355Z AUTO 29004KT 250V020 9999 -RA FEW015CB BKN077 BKN083 BKN088 18/17 Q1018 BLU TEMPO VRB15G40KT 2000 SHRA TSRA SCT012 SCT030CB BKN090 EHVK 191336Z AUTO 35005KT 300V040 9999 FEW015CB BKN120 OVC190 18/17 Q1017 BLU TEMPO VRB15G40KT 2000 SHRA TSRA SCT012 SCT030CB BKN090 EHVK 191325Z AUTO 30003KT 260V340 9999 -SHRA FEW015CB SCT096 OVC100 17/16 Q1018 RETS BLU TEMPO VRB15G40KT 2000 SHRA TSRA SCT012 SCT030CB BKN090 EHVK 191318Z AUTO VRB02KT 9999 -RA FEW015CB SCT094 OVC100 17/16 Q1018 BLU TEMPO VRB15G40KT 2000 SHRA TSRA SCT012 SCT030CB BKN090 EHVK 191311Z AUTO 28004KT 220V350 9999 TS FEW015CB OVC100 17/16 Q1018 BLU TEMPO VRB25G50KT 1000 +TSRAGR SCT006 SCT030CB BKN090 EHVK 191307Z AUTO 28006KT 250V360 9999 TS SCT015CB OVC100 17/16 Q1017 WHT TEMPO VRB25G50KT 1000 +TSRAGR SCT006 SCT030CB BKN090 EHVK 191300Z AUTO 31008KT 260V010 9999 TS BKN015CB OVC100 17/16 Q1017 WHT TEMPO VRB25G50KT 1000 +TSRAGR SCT006 SCT030CB BKN090 EHVK 191256Z AUTO 33008KT 280V010 9999 TS BKN015CB SCT096 OVC100 17/16 Q1017 WHT TEMPO VRB25G50KT 1000 +TSRAGR SCT006 SCT030CB BKN090 EHVK 191255Z AUTO 34008KT 310V020 9999 -TSRA BKN015CB BKN094 OVC100 16/16 Q1017 RERA WHT TEMPO VRB25G50KT 1000 +TSRAGR SCT006 SCT030CB BKN090 EHVK 191248Z AUTO 34009KT 290V020 9999 -TSRA BKN015CB BKN094 OVC100 16/16 Q1017 WHT TEMPO VRB25G50KT 1000 +TSRAGR SCT006 SCT030CB BKN090 EHVK 191243Z AUTO 33010KT 250V360 9999 TSRA FEW007 BKN015CB OVC098 16/16 Q1018 WHT TEMPO VRB25G50KT 1000 +TSRAGR SCT006 SCT030CB BKN090 EHVK 191238Z AUTO 31009KT 250V010 9999 TSRA FEW006 BKN015CB BKN085 16/16 Q1018 WHT TEMPO VRB25G50KT 1000 +TSRAGR SCT006 SCT030CB BKN090 EHVK 191230Z AUTO 31009G20KT 250V040 9999 TSRA FEW006 SCT007 BKN015CB 16/15 Q1018 GRN TEMPO VRB25G50KT 1000 +TSRAGR SCT006 SCT030CB BKN090 EHVK 191225Z AUTO 31012G23KT 250V040 9999 TSRA FEW007 SCT010 FEW015CB BKN070 16/15 Q1018 REDZ GRN TEMPO VRB25G50KT 1000 +TSRAGR SCT006 SCT030CB BKN090 EHVK 191219Z AUTO 29015G31KT 250V360 9999 TSRA FEW003 SCT012 FEW015CB BKN063 16/15 Q1018 GRN TEMPO VRB25G50KT 1000 +TSRAGR SCT006 SCT030CB BKN090 EHVK 191214Z AUTO 28020G41KT 240V340 5000 +TSRA FEW003 SCT006 FEW015CB BKN024 16/15 Q1018 YLO TEMPO VRB25G50KT 1000 +TSRAGR SCT006 SCT030CB BKN090 EHVK 191211Z AUTO 27025G44KT 240V320 1200 +TSRA FEW003 SCT006 FEW015CB BKN027 16/14 Q1018 AMB TEMPO VRB25G50KT 1000 +TSRAGR SCT006 SCT030CB BKN090 EHVK 191209Z AUTO 27026G44KT 240V320 1000 +TSRA FEW003 SCT007 FEW015CB BKN030 16/14 Q1018 AMB TEMPO VRB25G50KT 1000 +TSRAGR SCT006 SCT030CB BKN090 EHVK 191206Z AUTO 27029G44KT 240V300 1000 +TSRA DZ FEW010 FEW015CB SCT038 BKN056 17/14 Q1017 AMB TEMPO VRB15G25KT 2500 TSRAGR SCT012 SCT030CB BKN090 EHVK 191204Z AUTO 22009G44KT 170V270 9999 -TSRA -DZ FEW037CB BKN058 BKN064 25/15 Q1016 BLU TEMPO VRB15G25KT 2500 TSRAGR SCT012 SCT030CB BKN090 EHVK 191155Z AUTO 17003KT 140V230 9999 TS FEW046CB BKN072 OVC081 26/15 Q1015 BLU TEMPO VRB15G25KT 2500 TSRAGR SCT012 SCT030CB BKN090 EHVK 191125Z AUTO 15006KT 090V180 9999 FEW058 BKN068 27/14 Q1015 BLU TEMPO VRB15G25KT 2500 TSRAGR SCT012 SCT030CB BKN090 EHVK 191055Z AUTO 15007KT 080V170 9999 OVC080 27/14 Q1015 BLU TEMPO VRB15G25KT 2500 TSRAGR SCT012 SCT030CB BKN090 EHVK 191025Z AUTO 13006KT 050V160 9999 BKN082 BKN087 BKN094 27/16 Q1016 BLU TEMPO VRB15G25KT 2500 TSRAGR SCT012 SCT030CB BKN090 EHVK 191009Z AUTO 13006KT 070V180 9999 FEW085 OVC150 26/15 Q1016 BLU TEMPO VRB15G25KT 2500 TSRAGR SCT012 SCT030CB BKN090 EHVK 190955Z AUTO 11008KT 090V170 9999 OVC160 25/16 Q1016 BLU NOSIG EHVK 190925Z AUTO 12009KT 080V170 9999 OVC180 24/16 Q1016 BLU NOSIG EHVK 190859Z AUTO 11008KT 080V160 9999 OVC170 24/17 Q1016 BLU NOSIG EHVK 190855Z AUTO 12009KT 100V160 9999 OVC180 23/16 Q1016 BLU TEMPO 22010G23KT 4000 SHRA TSRA SCT025 SCT040CB BKN060 EHVK 190825Z AUTO 12005KT 070V180 9999 OVC160 21/17 Q1016 BLU TEMPO 22010G23KT 4000 SHRA TSRA SCT025 SCT040CB BKN060 EHVK 190755Z AUTO 08005KT 050V140 9999 OVC150 20/16 Q1016 BLU TEMPO 22010G23KT 4000 SHRA TSRA SCT025 SCT040CB BKN060 EHVK 190725Z AUTO 14004KT 090V190 9999 OVC120 19/16 Q1017 BLU TEMPO 22010G23KT 4000 SHRA TSRA SCT025 SCT040CB BKN060 EHVK 190655Z AUTO 13006KT 110V200 9999 FEW015CB OVC110 19/16 Q1017 BLU TEMPO 22010G23KT 4000 SHRA TSRA SCT025 SCT040CB BKN060 EHVK 190638Z AUTO 35004KT 270V030 9999 FEW015CB SCT094 OVC110 18/16 Q1017 BLU TEMPO 22010G23KT 4000 SHRA TSRA SCT025 SCT040CB BKN060 EHVK 190625Z AUTO 09010KT 350V150 9999 -SHRA FEW015CB SCT071 BKN078 18/16 Q1016 REUP RERA REDZ BLU TEMPO 22010G23KT 4000 SHRA TSRA SCT025 SCT040CB BKN060 EHVK 190619Z AUTO 10011KT 050V140 9999 RA FEW015CB SCT073 BKN079 18/15 Q1016 BLU TEMPO 22010G23KT 4000 SHRA TSRA SCT025 SCT040CB BKN060 EHVK 190608Z AUTO 08006KT 020V130 9000 SHRA FEW005 FEW015CB SCT064 BKN082 18/16 Q1017 BLU EHVK 190606Z AUTO 06004KT 010V090 6000 +DZRA FEW015CB BKN085 OVC094 19/15 Q1017 WHT EHVK 190602Z AUTO 05003KT 360V070 9999 DZ FEW015CB SCT082 BKN095 19/16 Q1017 BLU EHVK 190555Z AUTO 02003KT 340V050 9999 FEW015CB SCT077 OVC097 19/16 Q1017 BLU EHVK 190525Z AUTO VRB01KT 9999 FEW076 BKN095 OVC100 19/16 Q1018 BLU EHVK 190455Z AUTO 32003KT 260V360 9999 -RA FEW030 SCT044 BKN071 19/15 Q1018 RERA REDZ BLU EHVK 190425Z AUTO VRB01KT 9999 FEW020 SCT088 OVC100 20/15 Q1018 BLU EHVK 190355Z AUTO 29004KT 240V360 9999 OVC090 20/14 Q1018 BLU EHVK 190325Z AUTO 15004KT 9999 OVC089 19/15 Q1016 BLU EHVK 190255Z AUTO 14005KT 100V180 9999 OVC210 18/15 Q1016 BLU EHVK 190225Z AUTO 12005KT 100V170 9999 BKN240 OVC290 18/15 Q1016 BLU EHVK 190155Z AUTO 10006KT 060V140 9999 SCT280 OVC340 18/15 Q1016 BLU EHVK 190125Z AUTO 09004KT 050V140 9999 OVC240 17/15 Q1017 BLU EHVK 190055Z AUTO 07005KT 050V110 8000 BR OVC250 16/14 Q1017 BLU EHVK 190025Z AUTO 04003KT 9999 OVC250 18/15 Q1017 BLU EHVK 182355Z AUTO 07005KT 050V120 9999 SCT260 OVC330 17/15 Q1017 BLU EHVK 182325Z AUTO 08006KT 9999 OVC260 17/15 Q1018 BLU EHVK 182255Z AUTO 06005KT 9999 OVC250 18/15 Q1018 BLU EHVK 182225Z AUTO 06005KT 9999 FEW079 SCT085 BKN092 19/15 Q1019 BLU EHVK 182155Z AUTO 07005KT 9999 OVC270 19/16 Q1019 BLU EHVK 182125Z AUTO 04003KT 9999 SCT078 BKN083 OVC270 20/16 Q1019 BLU EHVK 182055Z AUTO 01003KT 340V040 9999 FEW076 SCT096 OVC280 21/16 Q1019 BLU EHVK 182025Z AUTO 35005KT 320V020 9999 BKN072 BKN079 BKN086 22/16 Q1019 BLU EHVK 181955Z AUTO 35006KT 310V010 9999 FEW073 SCT079 BKN088 22/16 Q1019 BLU EHVK 181925Z AUTO 36004KT 320V020 9999 FEW082 SCT088 BKN100 23/15 Q1019 BLU EHVK 181855Z AUTO 35004KT 300V020 9999 OVC068 24/15 Q1019 BLU EHVK 181825Z AUTO 35005KT 300V010 9999 SCT074 BKN081 BKN088 24/15 Q1019 BLU EHVK 181755Z AUTO 35005KT 310V010 9999 BKN079 OVC085 25/15 Q1019 BLU EHVK 181725Z AUTO 36004KT 290V030 9999 FEW091 SCT100 OVC260 26/15 Q1019 BLU EHVK 181655Z AUTO 31003KT 310V060 9999 FEW100 OVC280 26/15 Q1019 BLU EHVK 181625Z AUTO VRB04KT 9999 SCT043 SCT100 BKN290 26/15 Q1019 BLU EHVK 181555Z AUTO 01004KT 300V040 9999 SCT092 SCT098 BKN100 26/15 Q1020 BLU EHVK 181525Z AUTO 35004KT 290V030 9999 BKN069 BKN094 BKN099 26/15 Q1020 BLU EHVK 181455Z AUTO 30003KT 290V030 9999 BKN077 OVC084 26/15 Q1020 BLU EHVK 181425Z AUTO 30004KT 240V360 9999 SCT072 BKN083 26/15 Q1020 BLU EHVK 181410Z AUTO 29005KT 230V320 9999 BKN074 OVC085 26/15 Q1020 BLU EHVK 181355Z AUTO 30004KT 220V330 9999 FEW079 BKN094 BKN099 26/15 Q1020 BLU NOSIG

METAR Messwerte "VOLKEL RNLAFB" EHVK

Zurück zur Übersicht

Ortsname
Ländercode / m ü. NN
Zeit Temperatur Taupunkt Rel.
Luftfeuchte
Luftdruck:
Altimeter
NN
Station
Wind in Beaufort
(Knoten)
Sichtweite
(Meter)
Wolken
(Meter über Grund)
Wettererscheinung
VOLKEL RNLAFB
NL 20
Fr 20.05. 03:20111094 %1022
1022
1020
Uml 1 (1)350Bedeckt (11000)
Wolkig (0)
Nebel
VOLKEL RNLAFB
NL 20
Fr 20.05. 03:131010100 %1022
1022
1020
Uml 1 (1)500Bedeckt (11000)Nebel
VOLKEL RNLAFB
NL 20
Fr 20.05. 03:111010100 %1022
1022
1020
Uml 1 (1)800Bedeckt (11000)Nebel
VOLKEL RNLAFB
NL 20
Fr 20.05. 03:071010100 %1022
1022
1020
Uml 1 (1)600Bedeckt (11000)
Wolkig (8800)
Nebel
VOLKEL RNLAFB
NL 20
Fr 20.05. 03:02111094 %1022
1022
1020
S 1 (1)800Bedeckt (11000)
Stark bewölkt (8800)
Nebel
VOLKEL RNLAFB
NL 20
Fr 20.05. 02:56111094 %1022
1022
1020
Uml 1 (1)400Bedeckt (8800)Nebel
VOLKEL RNLAFB
NL 20
Fr 20.05. 02:551010100 %1022
1022
1020
S 1 (1)3000Bedeckt (11000)
Stark bewölkt (8800)
Nebeldunst
VOLKEL RNLAFB
NL 20
Fr 20.05. 02:49111094 %1022
1022
1020
S 1 (1)4000Bedeckt (11000)
Stark bewölkt (8800)
Nebeldunst
VOLKEL RNLAFB
NL 20
Fr 20.05. 02:441010100 %1022
1022
1020
S 1 (1)6000Bedeckt (8800)Nebeldunst
VOLKEL RNLAFB
NL 20
Fr 20.05. 02:36111094 %1022
1022
1020
S 1 (1)1100Bedeckt (11000)
Stark bewölkt (9100)
Nebeldunst
VOLKEL RNLAFB
NL 20
Fr 20.05. 02:28111094 %1022
1022
1020
SSW 1 (1)1800Stark bewölkt (11000)
Leicht bewölkt (0)
Nebeldunst
VOLKEL RNLAFB
NL 20
Fr 20.05. 02:251111100 %1022
1022
1020
WSW 1 (1)3300Stark bewölkt (11000)
Stark bewölkt (0)
Nebeldunst
VOLKEL RNLAFB
NL 20
Fr 20.05. 02:161010100 %1022
1022
1020
WSW 1 (1)4100Stark bewölkt (11000)
Wolkig (0)
Nebeldunst
VOLKEL RNLAFB
NL 20
Fr 20.05. 02:071111100 %1022
1022
1020
W 1 (1)6000Leicht bewölkt (0)Nebeldunst
VOLKEL RNLAFB
NL 20
Fr 20.05. 02:001111100 %1022
1022
1020
SW 1 (1)2700Wolkig (0)Nebeldunst
VOLKEL RNLAFB
NL 20
Fr 20.05. 01:581111100 %1022
1022
1020
SW 1 (1)4600Leicht bewölkt (0)Nebeldunst
VOLKEL RNLAFB
NL 20
Fr 20.05. 01:551111100 %1022
1022
1020
SW 1 (1)5000 Nebeldunst
VOLKEL RNLAFB
NL 20
Fr 20.05. 01:481111100 %1022
1022
1020
SW 1 (1)1000 Nebeldunst
VOLKEL RNLAFB
NL 20
Fr 20.05. 01:451111100 %1022
1022
1020
SW 1 (1)2600 Nebeldunst
VOLKEL RNLAFB
NL 20
Fr 20.05. 01:401111100 %1022
1022
1020
WSW 1 (1)4200Leicht bewölkt (8200)Nebeldunst
VOLKEL RNLAFB
NL 20
Fr 20.05. 01:301212100 %1022
1022
1020
WSW 1 (2)3600Stark bewölkt (8200)Nebeldunst
VOLKEL RNLAFB
NL 20
Fr 20.05. 01:25121194 %1022
1022
1020
SW 1 (2)4100Stark bewölkt (8200)Nebeldunst
VOLKEL RNLAFB
NL 20
Fr 20.05. 00:551212100 %1021
1021
1019
SSW 1 (1)6000Bedeckt (8500)Nebeldunst
VOLKEL RNLAFB
NL 20
Fr 20.05. 00:251313100 %1021
1021
1019
Uml 1 (1)7000Stark bewölkt (10000)Nebeldunst
VOLKEL RNLAFB
NL 20
Do 19.05. 23:59141394 %1022
1022
1020
W 2 (3)
W - NW
7000Wolkig (10000)Nebeldunst
VOLKEL RNLAFB
NL 20
Do 19.05. 23:55141394 %1021
1021
1019
W 2 (4)
WSW - NW
8000Leicht bewölkt (10000)Nebeldunst
VOLKEL RNLAFB
NL 20
Do 19.05. 23:25151388 %1021
1021
1019
WNW 2 (3)
W - NW
9000 Nebeldunst
VOLKEL RNLAFB
NL 20
Do 19.05. 22:56151388 %1021
1021
1019
WNW 2 (4)
WSW - NNW
>= 10000Leicht bewölkt (460) 
VOLKEL RNLAFB
NL 20
Do 19.05. 22:55151388 %1021
1021
1019
W 2 (4)
WSW - NNW
>= 10000Wolkig (460) 
VOLKEL RNLAFB
NL 20
Do 19.05. 22:33151388 %1021
1021
1019
WNW 2 (3)>= 10000Stark bewölkt (580)
Wolkig (490)
 
VOLKEL RNLAFB
NL 20
Do 19.05. 22:26151388 %1021
1021
1019
WNW 2 (3)
WSW - WNW
>= 10000Wolkig (580)
Leicht bewölkt (490)
 
VOLKEL RNLAFB
NL 20
Do 19.05. 22:25151388 %1021
1021
1019
W 2 (3)
WSW - NW
>= 10000Leicht bewölkt (580) 
VOLKEL RNLAFB
NL 20
Do 19.05. 21:55161382 %1021
1021
1019
W 2 (4)
WSW - NW
>= 10000  
VOLKEL RNLAFB
NL 20
Do 19.05. 21:27171377 %1020
1020
1018
W 2 (6)
WSW - NNW
>= 10000Wolkig (8200)
Leicht bewölkt (490)
 
VOLKEL RNLAFB
NL 20
Do 19.05. 21:25171482 %1020
1020
1018
W 2 (6)
WSW - NNW
>= 10000Stark bewölkt (490) 
VOLKEL RNLAFB
NL 20
Do 19.05. 21:03171482 %1020
1020
1018
W 2 (6)
WSW - NNW
>= 10000Bedeckt (8800)
Stark bewölkt (580)
Wolkig (490)
 
VOLKEL RNLAFB
NL 20
Do 19.05. 21:02171482 %1020
1020
1018
W 2 (5)
WSW - NNW
>= 10000Bedeckt (8800)
Wolkig (610)
Leicht bewölkt (520)
 
VOLKEL RNLAFB
NL 20
Do 19.05. 20:55181477 %1020
1020
1018
W 2 (5)
WSW - NW
>= 10000Bedeckt (9100)
Leicht bewölkt (520)
 
VOLKEL RNLAFB
NL 20
Do 19.05. 20:40181477 %1020
1020
1018
W 2 (6)
WSW - NW
>= 10000Stark bewölkt (9400)
Leicht bewölkt (580)
 
VOLKEL RNLAFB
NL 20
Do 19.05. 20:25191473 %1020
1020
1018
W 3 (7)
WSW - NW
>= 10000Stark bewölkt (700) 
VOLKEL RNLAFB
NL 20
Do 19.05. 20:18191473 %1020
1020
1018
W 3 (8)
WSW - NW
>= 10000Stark bewölkt (11000)
Stark bewölkt (700)
 
VOLKEL RNLAFB
NL 20
Do 19.05. 20:14191473 %1020
1020
1018
W 3 (9)
WSW - NW
>= 10000Stark bewölkt (11000)
Wolkig (730)
 
VOLKEL RNLAFB
NL 20
Do 19.05. 20:06191473 %1019
1019
1017
W 3 (8)
WSW - NNW
>= 10000Leicht bewölkt (580) 
VOLKEL RNLAFB
NL 20
Do 19.05. 19:55191578 %1019
1019
1017
W 3 (9)
WSW - NW
>= 10000Wolkig (580) 
VOLKEL RNLAFB
NL 20
Do 19.05. 19:33201678 %1019
1019
1017
W 2 (6)
WSW - NW
>= 10000Stark bewölkt (580) 
VOLKEL RNLAFB
NL 20
Do 19.05. 19:32201573 %1019
1019
1017
W 3 (8)
WSW - NW
>= 10000Wolkig (580) 
VOLKEL RNLAFB
NL 20
Do 19.05. 19:25201573 %1019
1019
1017
W 3 (8)
WSW - NNW
>= 10000Leicht bewölkt (610) 
VOLKEL RNLAFB
NL 20
Do 19.05. 18:55201783 %1019
1019
1017
WSW 3 (7)
SSW - W
>= 10000Stark bewölkt (730)
Wolkig (640)
Leicht bewölkt (520)
 
VOLKEL RNLAFB
NL 20
Do 19.05. 18:37211778 %1019
1019
1017
SW 3 (8)
SSW - W
>= 10000Stark bewölkt (820)
Stark bewölkt (670)
Wolkig (580)
 
VOLKEL RNLAFB
NL 20
Do 19.05. 18:30211673 %1019
1019
1017
SW 3 (8)
S - W
>= 10000Stark bewölkt (820)
Wolkig (700)
Wolkig (610)
 
VOLKEL RNLAFB
NL 20
Do 19.05. 18:25211778 %1019
1019
1017
SW 3 (8)
S - W
>= 10000Bedeckt (880)
Stark bewölkt (790)
Wolkig (580)
 
VOLKEL RNLAFB
NL 20
Do 19.05. 18:20211673 %1019
1019
1017
WSW 3 (8)
S - W
>= 10000Stark bewölkt (880)
Wolkig (760)
Leicht bewölkt (610)
 
VOLKEL RNLAFB
NL 20
Do 19.05. 18:16211673 %1019
1019
1017
WSW 3 (8)
S - W
>= 10000Stark bewölkt (980)
Stark bewölkt (880)
Wolkig (730)
 
VOLKEL RNLAFB
NL 20
Do 19.05. 18:12211673 %1019
1019
1017
SW 3 (10)
SSW - W
>= 10000Stark bewölkt (910)
Wolkig (790)
Leicht bewölkt (610)
 
VOLKEL RNLAFB
NL 20
Do 19.05. 18:06211673 %1019
1019
1017
SW 4 (11)
SSW - W
>= 10000Wolkig (730)
Leicht bewölkt (610)
 
VOLKEL RNLAFB
NL 20
Do 19.05. 17:55221773 %1018
1018
1016
WSW 3 (8)
SSW - W
>= 10000Leicht bewölkt (610) 
VOLKEL RNLAFB
NL 20
Do 19.05. 17:25211883 %1018
1018
1016
SW 3 (7)
S - WSW
>= 10000Bedeckt (3400) 
VOLKEL RNLAFB
NL 20
Do 19.05. 16:55201678 %1017
1017
1015
SW 1 (1)>= 10000Bedeckt (4000) 
VOLKEL RNLAFB
NL 20
Do 19.05. 16:31191788 %1017
1017
1015
NNO 2 (3)
N - ONO
>= 10000Bedeckt (3400)
Leicht bewölkt Cb (460)
 
VOLKEL RNLAFB
NL 20
Do 19.05. 16:25191788 %1017
1017
1015
NNO 2 (4)
NNW - ONO
Bald zeitweise:
Uml 4 (15) - 8 (40)
>= 10000
Bald zeitweise: 2000
Bedeckt (3000)
Leicht bewölkt Cb (460)
 Bald zeitweise: Regen-Schauer
Gewitter mit Regen
VOLKEL RNLAFB
NL 20
Do 19.05. 15:56181794 %1018
1018
1016
NW 2 (5)
WSW - N
Bald zeitweise:
Uml 4 (15) - 8 (40)
>= 10000
Bald zeitweise: 2000
Bedeckt (2500)
Wolkig (2300)
Wolkig Cb (460)
Regen (schwach)
Bald zeitweise: Regen-Schauer
Gewitter mit Regen
VOLKEL RNLAFB
NL 20
Do 19.05. 15:55181794 %1018
1018
1016
WNW 2 (4)
WSW - NNO
Bald zeitweise:
Uml 4 (15) - 8 (40)
>= 10000
Bald zeitweise: 2000
Stark bewölkt (2700)
Stark bewölkt (2500)
Stark bewölkt (2300)
Leicht bewölkt Cb (460)
Regen (schwach)
Bald zeitweise: Regen-Schauer
Gewitter mit Regen
VOLKEL RNLAFB
NL 20
Do 19.05. 15:36181794 %1017
1017
1015
N 2 (5)
WNW - NO
Bald zeitweise:
Uml 4 (15) - 8 (40)
>= 10000
Bald zeitweise: 2000
Bedeckt (5800)
Stark bewölkt (3700)
Leicht bewölkt Cb (460)
 Bald zeitweise: Regen-Schauer
Gewitter mit Regen
VOLKEL RNLAFB
NL 20
Do 19.05. 15:25171694 %1018
1018
1016
WNW 2 (3)
W - NNW
Bald zeitweise:
Uml 4 (15) - 8 (40)
>= 10000
Bald zeitweise: 2000
Bedeckt (3000)
Wolkig (2900)
Leicht bewölkt Cb (460)
Regen-Schauer (schwach)
Bald zeitweise: Regen-Schauer
Gewitter mit Regen
VOLKEL RNLAFB
NL 20
Do 19.05. 15:18171694 %1018
1018
1016
Uml 1 (2)
Bald zeitweise:
Uml 4 (15) - 8 (40)
>= 10000
Bald zeitweise: 2000
Bedeckt (3000)
Wolkig (2900)
Leicht bewölkt Cb (460)
Regen (schwach)
Bald zeitweise: Regen-Schauer
Gewitter mit Regen
VOLKEL RNLAFB
NL 20
Do 19.05. 15:11171694 %1018
1018
1016
W 2 (4)
SW - N
Bald zeitweise:
Uml 6 (25) - 10 (50)
>= 10000
Bald zeitweise: 1000
Bedeckt (3000)
Leicht bewölkt Cb (460)
 Bald zeitweise: Gewitter mit Regen/Hagel (stark)
VOLKEL RNLAFB
NL 20
Do 19.05. 15:07171694 %1017
1017
1015
W 2 (6)
WSW - N
Bald zeitweise:
Uml 6 (25) - 10 (50)
>= 10000
Bald zeitweise: 1000
Bedeckt (3000)
Wolkig Cb (460)
 Bald zeitweise: Gewitter mit Regen/Hagel (stark)
VOLKEL RNLAFB
NL 20
Do 19.05. 15:00171694 %1017
1017
1015
NW 3 (8)
W - N
Bald zeitweise:
Uml 6 (25) - 10 (50)
>= 10000
Bald zeitweise: 1000
Bedeckt (3000)
Stark bewölkt Cb (460)
 Bald zeitweise: Gewitter mit Regen/Hagel (stark)
VOLKEL RNLAFB
NL 20
Do 19.05. 14:56171694 %1017
1017
1015
NNW 3 (8)
W - N
Bald zeitweise:
Uml 6 (25) - 10 (50)
>= 10000
Bald zeitweise: 1000
Bedeckt (3000)
Wolkig (2900)
Stark bewölkt Cb (460)
 Bald zeitweise: Gewitter mit Regen/Hagel (stark)
VOLKEL RNLAFB
NL 20
Do 19.05. 14:551616100 %1017
1017
1015
NNW 3 (8)
NW - NNO
Bald zeitweise:
Uml 6 (25) - 10 (50)
>= 10000
Bald zeitweise: 1000
Bedeckt (3000)
Stark bewölkt (2900)
Stark bewölkt Cb (460)
Gewitter mit Regen (schwach)
Bald zeitweise: Gewitter mit Regen/Hagel (stark)
VOLKEL RNLAFB
NL 20
Do 19.05. 14:481616100 %1017
1017
1015
NNW 3 (9)
WNW - NNO
Bald zeitweise:
Uml 6 (25) - 10 (50)
>= 10000
Bald zeitweise: 1000
Bedeckt (3000)
Stark bewölkt (2900)
Stark bewölkt Cb (460)
Gewitter mit Regen (schwach)
Bald zeitweise: Gewitter mit Regen/Hagel (stark)
VOLKEL RNLAFB
NL 20
Do 19.05. 14:431616100 %1018
1018
1016
NNW 3 (10)
WSW - N
Bald zeitweise:
Uml 6 (25) - 10 (50)
>= 10000
Bald zeitweise: 1000
Bedeckt (3000)
Stark bewölkt Cb (460)
Leicht bewölkt (210)
Gewitter mit Regen
Bald zeitweise: Gewitter mit Regen/Hagel (stark)
VOLKEL RNLAFB
NL 20
Do 19.05. 14:381616100 %1018
1018
1016
NW 3 (9)
WSW - N
Bald zeitweise:
Uml 6 (25) - 10 (50)
>= 10000
Bald zeitweise: 1000
Stark bewölkt (2600)
Stark bewölkt Cb (460)
Leicht bewölkt (180)
Gewitter mit Regen
Bald zeitweise: Gewitter mit Regen/Hagel (stark)
VOLKEL RNLAFB
NL 20
Do 19.05. 14:30161594 %1018
1018
1016
NW 3 (9) - 5 (20)
WSW - NO
Bald zeitweise:
Uml 6 (25) - 10 (50)
>= 10000
Bald zeitweise: 1000
Stark bewölkt Cb (460)
Wolkig (210)
Leicht bewölkt (180)
Gewitter mit Regen
Bald zeitweise: Gewitter mit Regen/Hagel (stark)
VOLKEL RNLAFB
NL 20
Do 19.05. 14:25161594 %1018
1018
1016
NW 4 (12) - 6 (23)
WSW - NO
Bald zeitweise:
Uml 6 (25) - 10 (50)
>= 10000
Bald zeitweise: 1000
Stark bewölkt (2100)
Leicht bewölkt Cb (460)
Wolkig (300)
Leicht bewölkt (210)
Gewitter mit Regen
Bald zeitweise: Gewitter mit Regen/Hagel (stark)
VOLKEL RNLAFB
NL 20
Do 19.05. 14:19161594 %1018
1018
1016
WNW 4 (15) - 7 (31)
WSW - N
Bald zeitweise:
Uml 6 (25) - 10 (50)
>= 10000
Bald zeitweise: 1000
Stark bewölkt (1900)
Leicht bewölkt Cb (460)
Wolkig (370)
Leicht bewölkt (91)
Gewitter mit Regen
Bald zeitweise: Gewitter mit Regen/Hagel (stark)
VOLKEL RNLAFB
NL 20
Do 19.05. 14:14161594 %1018
1018
1016
W 5 (20) - 9 (41)
WSW - NNW
Bald zeitweise:
Uml 6 (25) - 10 (50)
5000
Bald zeitweise: 1000
Stark bewölkt (730)
Leicht bewölkt Cb (460)
Wolkig (180)
Leicht bewölkt (91)
Gewitter mit Regen (stark)
Bald zeitweise: Gewitter mit Regen/Hagel (stark)
VOLKEL RNLAFB
NL 20
Do 19.05. 14:11161488 %1018
1018
1016
W 6 (25) - 9 (44)
WSW - NW
Bald zeitweise:
Uml 6 (25) - 10 (50)
1200
Bald zeitweise: 1000
Stark bewölkt (820)
Leicht bewölkt Cb (460)
Wolkig (180)
Leicht bewölkt (91)
Gewitter mit Regen (stark)
Bald zeitweise: Gewitter mit Regen/Hagel (stark)
VOLKEL RNLAFB
NL 20
Do 19.05. 14:09161488 %1018
1018
1016
W 6 (26) - 9 (44)
WSW - NW
Bald zeitweise:
Uml 6 (25) - 10 (50)
1000Stark bewölkt (910)
Leicht bewölkt Cb (460)
Wolkig (210)
Leicht bewölkt (91)
Gewitter mit Regen (stark)
Bald zeitweise: Gewitter mit Regen/Hagel (stark)
VOLKEL RNLAFB
NL 20
Do 19.05. 14:06171482 %1017
1017
1015
W 7 (29) - 9 (44)
WSW - WNW
Bald zeitweise:
Uml 4 (15) - 6 (25)
1000
Bald zeitweise: 2500
Stark bewölkt (1700)
Wolkig (1200)
Leicht bewölkt Cb (460)
Leicht bewölkt (300)
Gewitter mit Regen (stark)
Nieselregen
Bald zeitweise: Gewitter mit Regen/Hagel
VOLKEL RNLAFB
NL 20
Do 19.05. 14:04251554 %1016
1016
1014
SW 3 (9) - 9 (44)
S - W
Bald zeitweise:
Uml 4 (15) - 6 (25)
>= 10000
Bald zeitweise: 2500
Stark bewölkt (2000)
Stark bewölkt (1800)
Leicht bewölkt Cb (1100)
Gewitter mit Regen (schwach)
Nieselregen (schwach)
Bald zeitweise: Gewitter mit Regen/Hagel
VOLKEL RNLAFB
NL 20
Do 19.05. 13:55261551 %1015
1015
1013
S 2 (3)
SO - SW
Bald zeitweise:
Uml 4 (15) - 6 (25)
>= 10000
Bald zeitweise: 2500
Bedeckt (2500)
Stark bewölkt (2200)
Leicht bewölkt Cb (1400)
 Bald zeitweise: Gewitter mit Regen/Hagel
VOLKEL RNLAFB
NL 20
Do 19.05. 13:25271445 %1015
1015
1013
SSO 2 (6)
O - S
Bald zeitweise:
Uml 4 (15) - 6 (25)
>= 10000
Bald zeitweise: 2500
Stark bewölkt (2100)
Leicht bewölkt (1800)
 Bald zeitweise: Gewitter mit Regen/Hagel
VOLKEL RNLAFB
NL 20
Do 19.05. 12:55271445 %1015
1015
1013
SSO 3 (7)
O - S
Bald zeitweise:
Uml 4 (15) - 6 (25)
>= 10000
Bald zeitweise: 2500
Bedeckt (2400) Bald zeitweise: Gewitter mit Regen/Hagel
VOLKEL RNLAFB
NL 20
Do 19.05. 12:25271651 %1016
1016
1014
SO 2 (6)
NO - SSO
Bald zeitweise:
Uml 4 (15) - 6 (25)
>= 10000
Bald zeitweise: 2500
Stark bewölkt (2900)
Stark bewölkt (2700)
Stark bewölkt (2500)
 Bald zeitweise: Gewitter mit Regen/Hagel
VOLKEL RNLAFB
NL 20
Do 19.05. 12:09261551 %1016
1016
1014
SO 2 (6)
ONO - S
Bald zeitweise:
Uml 4 (15) - 6 (25)
>= 10000
Bald zeitweise: 2500
Bedeckt (4600)
Leicht bewölkt (2600)
 Bald zeitweise: Gewitter mit Regen/Hagel
VOLKEL RNLAFB
NL 20
Do 19.05. 11:55251657 %1016
1016
1014
OSO 3 (8)
O - S
>= 10000Bedeckt (4900) 
VOLKEL RNLAFB
NL 20
Do 19.05. 11:25241661 %1016
1016
1014
OSO 3 (9)
O - S
>= 10000Bedeckt (5500) 
VOLKEL RNLAFB
NL 20
Do 19.05. 10:59241765 %1016
1016
1014
OSO 3 (8)
O - SSO
>= 10000Bedeckt (5200) 
VOLKEL RNLAFB
NL 20
Do 19.05. 10:55231665 %1016
1016
1014
OSO 3 (9)
O - SSO
Bald zeitweise:
SW 3 (10) - 6 (23)
>= 10000
Bald zeitweise: 4000
Bedeckt (5500) Bald zeitweise: Regen-Schauer
Gewitter mit Regen
VOLKEL RNLAFB
NL 20
Do 19.05. 10:25211778 %1016
1016
1014
OSO 2 (5)
ONO - S
Bald zeitweise:
SW 3 (10) - 6 (23)
>= 10000
Bald zeitweise: 4000
Bedeckt (4900) Bald zeitweise: Regen-Schauer
Gewitter mit Regen
VOLKEL RNLAFB
NL 20
Do 19.05. 09:55201678 %1016
1016
1014
O 2 (5)
NO - SO
Bald zeitweise:
SW 3 (10) - 6 (23)
>= 10000
Bald zeitweise: 4000
Bedeckt (4600) Bald zeitweise: Regen-Schauer
Gewitter mit Regen
VOLKEL RNLAFB
NL 20
Do 19.05. 09:25191683 %1017
1017
1015
SO 2 (4)
O - S
Bald zeitweise:
SW 3 (10) - 6 (23)
>= 10000
Bald zeitweise: 4000
Bedeckt (3700) Bald zeitweise: Regen-Schauer
Gewitter mit Regen
VOLKEL RNLAFB
NL 20
Do 19.05. 08:55191683 %1017
1017
1015
SO 2 (6)
OSO - SSW
Bald zeitweise:
SW 3 (10) - 6 (23)
>= 10000
Bald zeitweise: 4000
Bedeckt (3400)
Leicht bewölkt Cb (460)
 Bald zeitweise: Regen-Schauer
Gewitter mit Regen
VOLKEL RNLAFB
NL 20
Do 19.05. 08:38181688 %1017
1017
1015
N 2 (4)
W - NNO
Bald zeitweise:
SW 3 (10) - 6 (23)
>= 10000
Bald zeitweise: 4000
Bedeckt (3400)
Wolkig (2900)
Leicht bewölkt Cb (460)
 Bald zeitweise: Regen-Schauer
Gewitter mit Regen
VOLKEL RNLAFB
NL 20
Do 19.05. 08:25181688 %1016
1016
1014
O 3 (10)
N - SSO
Bald zeitweise:
SW 3 (10) - 6 (23)
>= 10000
Bald zeitweise: 4000
Stark bewölkt (2400)
Wolkig (2200)
Leicht bewölkt Cb (460)
Regen-Schauer (schwach)
Bald zeitweise: Regen-Schauer
Gewitter mit Regen
VOLKEL RNLAFB
NL 20
Do 19.05. 08:19181583 %1016
1016
1014
O 4 (11)
NO - SO
Bald zeitweise:
SW 3 (10) - 6 (23)
>= 10000
Bald zeitweise: 4000
Stark bewölkt (2400)
Wolkig (2200)
Leicht bewölkt Cb (460)
Regen
Bald zeitweise: Regen-Schauer
Gewitter mit Regen
VOLKEL RNLAFB
NL 20
Do 19.05. 08:08181688 %1017
1017
1015
O 2 (6)
NNO - SO
9000Stark bewölkt (2500)
Wolkig (2000)
Leicht bewölkt Cb (460)
Leicht bewölkt (150)
Regen-Schauer
VOLKEL RNLAFB
NL 20
Do 19.05. 08:06191578 %1017
1017
1015
ONO 2 (4)
N - O
6000Bedeckt (2900)
Stark bewölkt (2600)
Leicht bewölkt Cb (460)
Nieselregen/Regen (stark)
VOLKEL RNLAFB
NL 20
Do 19.05. 08:02191683 %1017
1017
1015
NO 2 (3)
N - ONO
>= 10000Stark bewölkt (2900)
Wolkig (2500)
Leicht bewölkt Cb (460)
Nieselregen
VOLKEL RNLAFB
NL 20
Do 19.05. 07:55191683 %1017
1017
1015
NNO 2 (3)
NNW - NO
>= 10000Bedeckt (3000)
Wolkig (2300)
Leicht bewölkt Cb (460)
 
VOLKEL RNLAFB
NL 20
Do 19.05. 07:25191683 %1018
1018
1016
Uml 1 (1)>= 10000Bedeckt (3000)
Stark bewölkt (2900)
Leicht bewölkt (2300)
 
VOLKEL RNLAFB
NL 20
Do 19.05. 06:55191578 %1018
1018
1016
NW 2 (3)
W - N
>= 10000Stark bewölkt (2200)
Wolkig (1300)
Leicht bewölkt (910)
Regen (schwach)
VOLKEL RNLAFB
NL 20
Do 19.05. 06:25201573 %1018
1018
1016
Uml 1 (1)>= 10000Bedeckt (3000)
Wolkig (2700)
Leicht bewölkt (610)
 
VOLKEL RNLAFB
NL 20
Do 19.05. 05:55201468 %1018
1018
1016
WNW 2 (4)
WSW - N
>= 10000Bedeckt (2700) 
VOLKEL RNLAFB
NL 20
Do 19.05. 05:25191578 %1016
1016
1014
SSO 2 (4)>= 10000Bedeckt (2700) 
VOLKEL RNLAFB
NL 20
Do 19.05. 04:55181583 %1016
1016
1014
SO 2 (5)
O - S
>= 10000Bedeckt (6400) 
VOLKEL RNLAFB
NL 20
Do 19.05. 04:25181583 %1016
1016
1014
OSO 2 (5)
O - S
>= 10000Bedeckt (8800)
Stark bewölkt (7300)
 
VOLKEL RNLAFB
NL 20
Do 19.05. 03:55181583 %1016
1016
1014
O 2 (6)
ONO - SO
>= 10000Bedeckt (10000)
Wolkig (8500)
 
VOLKEL RNLAFB
NL 20
Do 19.05. 03:25171588 %1017
1017
1015
O 2 (4)
NO - SO
>= 10000Bedeckt (7300) 
VOLKEL RNLAFB
NL 20
Do 19.05. 02:55161488 %1017
1017
1015
ONO 2 (5)
NO - OSO
8000Bedeckt (7600)Nebeldunst
VOLKEL RNLAFB
NL 20
Do 19.05. 02:25181583 %1017
1017
1015
NO 2 (3)>= 10000Bedeckt (7600) 
VOLKEL RNLAFB
NL 20
Do 19.05. 01:55171588 %1017
1017
1015
ONO 2 (5)
NO - OSO
>= 10000Bedeckt (10000)
Wolkig (7900)
 
VOLKEL RNLAFB
NL 20
Do 19.05. 01:25171588 %1018
1018
1016
O 2 (6)>= 10000Bedeckt (7900) 
VOLKEL RNLAFB
NL 20
Do 19.05. 00:55181583 %1018
1018
1016
ONO 2 (5)>= 10000Bedeckt (7600) 
VOLKEL RNLAFB
NL 20
Do 19.05. 00:25191578 %1019
1019
1017
ONO 2 (5)>= 10000Stark bewölkt (2800)
Wolkig (2600)
Leicht bewölkt (2400)
 
VOLKEL RNLAFB
NL 20
Mi 18.05. 23:55191683 %1019
1019
1017
ONO 2 (5)>= 10000Bedeckt (8200) 
VOLKEL RNLAFB
NL 20
Mi 18.05. 23:25201678 %1019
1019
1017
NO 2 (3)>= 10000Bedeckt (8200)
Stark bewölkt (2500)
Wolkig (2400)
 
VOLKEL RNLAFB
NL 20
Mi 18.05. 22:55211673 %1019
1019
1017
N 2 (3)
NNW - NO
>= 10000Bedeckt (8500)
Wolkig (2900)
Leicht bewölkt (2300)
 
VOLKEL RNLAFB
NL 20
Mi 18.05. 22:25221669 %1019
1019
1017
N 2 (5)
NW - NNO
>= 10000Stark bewölkt (2600)
Stark bewölkt (2400)
Stark bewölkt (2200)
 
VOLKEL RNLAFB
NL 20
Mi 18.05. 21:55221669 %1019
1019
1017
N 2 (6)
NW - N
>= 10000Stark bewölkt (2700)
Wolkig (2400)
Leicht bewölkt (2200)
 
VOLKEL RNLAFB
NL 20
Mi 18.05. 21:25231561 %1019
1019
1017
N 2 (4)
NW - NNO
>= 10000Stark bewölkt (3000)
Wolkig (2700)
Leicht bewölkt (2500)
 
VOLKEL RNLAFB
NL 20
Mi 18.05. 20:55241557 %1019
1019
1017
N 2 (4)
WNW - NNO
>= 10000Bedeckt (2100) 
VOLKEL RNLAFB
NL 20
Mi 18.05. 20:25241557 %1019
1019
1017
N 2 (5)
WNW - N
>= 10000Stark bewölkt (2700)
Stark bewölkt (2500)
Wolkig (2300)
 
VOLKEL RNLAFB
NL 20
Mi 18.05. 19:55251554 %1019
1019
1017
N 2 (5)
NW - N
>= 10000Bedeckt (2600)
Stark bewölkt (2400)
 
VOLKEL RNLAFB
NL 20
Mi 18.05. 19:25261551 %1019
1019
1017
N 2 (4)
WNW - NNO
>= 10000Bedeckt (7900)
Wolkig (3000)
Leicht bewölkt (2800)
 
VOLKEL RNLAFB
NL 20
Mi 18.05. 18:55261551 %1019
1019
1017
NW 2 (3)
NW - ONO
>= 10000Bedeckt (8500)
Leicht bewölkt (3000)
 
VOLKEL RNLAFB
NL 20
Mi 18.05. 18:25261551 %1019
1019
1017
Uml 2 (4)>= 10000Stark bewölkt (8800)
Wolkig (3000)
Wolkig (1300)
 
VOLKEL RNLAFB
NL 20
Mi 18.05. 17:55261551 %1020
1020
1018
N 2 (4)
WNW - NO
>= 10000Stark bewölkt (3000)
Wolkig (3000)
Wolkig (2800)
 
VOLKEL RNLAFB
NL 20
Mi 18.05. 17:25261551 %1020
1020
1018
N 2 (4)
WNW - NNO
>= 10000Stark bewölkt (3000)
Stark bewölkt (2900)
Stark bewölkt (2100)
 
VOLKEL RNLAFB
NL 20
Mi 18.05. 16:55261551 %1020
1020
1018
WNW 2 (3)
WNW - NNO
>= 10000Bedeckt (2600)
Stark bewölkt (2300)
 
VOLKEL RNLAFB
NL 20
Mi 18.05. 16:25261551 %1020
1020
1018
WNW 2 (4)
WSW - N
>= 10000Stark bewölkt (2500)
Wolkig (2200)
 
VOLKEL RNLAFB
NL 20
Mi 18.05. 16:10261551 %1020
1020
1018
WNW 2 (5)
SW - NW
>= 10000Bedeckt (2600)
Stark bewölkt (2300)
 
VOLKEL RNLAFB
NL 20
Mi 18.05. 15:55261551 %1020
1020
1018
WNW 2 (4)
SW - NNW
>= 10000Stark bewölkt (3000)
Stark bewölkt (2900)
Leicht bewölkt (2400)
 

Altimeter: Einstellung am Altimeter (Höhenmesser), die Höhe 0 muss auf diesen Luftdruckwert zeigen, damit das Gerät die Stationshöhe richtig anzeigt.

NN: Luftdruck reduziert auf "Normal Null", auf Meereshöhe, dieser von der Temperatur abhängige Wert wird bisweilen unkorrekt einfach als "Luftdruck" bezeichnet. Eigentlich nur eine fiktive Größe, die es erlaubt, Stationen auf unterschiedlichen Höhen miteinander zu vergleichen.

Station: Realer Luftdruck an der Station.